Dyess Air Force Base
KDYS : now visible

Airfield :











YOU CAN JOIN US ON...

 
LOGIN :

Register | Disclaimer

   EN    FR    IT 

 









Legend :    VFR   Marginal VFR   IFR   Intensive IFR   Very Intensive IFR
Visi :
Ceiling :
>= 8 km
>= 3000ft
5 to 8 km
1000 to 3000 ft
1500m to 5 km
500 to 1000 ft
800 to 1500m
200 to 500 ft
< 800m
< 200 ft
Symbols :   Thunderstorms  Fog  Heavy snow  Heavy precipitations  Wind > 20 kt







- Airport Elevation : 1789 ft


KDYS - Dyess Air Force Base

CURRENT METAR :
  • 212056Z AUTO 17020G24KT 10SM OVC070 33/14 A2995 RMK AO2 PK WND 17030/08 SLP092 T03260142 57023 PNO FZRANO $

EXPIRED METARs :
  • 211956Z AUTO 17013G25KT 10SM OVC070 32/15 A2997 RMK AO2 PK WND 18028/1858 SLP098 T03240145 PNO FZRANO $
  • 211900Z 18020G25KT 10SM SCT060 BKN070 BKN160 BKN180 33/14 A2999 RMK SLP103 PNO FZRANO $
  • 211856Z AUTO 16018G25KT 10SM SCT060 BKN070 BKN180 33/15 A2999 RMK AO2 PK WND 18031/32 SLP103 T03310146 PNO FZRANO $

TAF TAF KDYS
Valid from the 21 at 14:00 until the 22 at 20:00 UTC


211400Z 2114/2220 15013G20KT 9999 SCT150 QNH2994INS
BECMG 2114/2115 15015G25KT 9999 SCT100 QNH2994INS
BECMG 2121/2122 15015G25KT 9999 VCTS SCT080CB QNH2994INS
TEMPO 2200/2202 VRB20G30KT 9000 -TSRA OVC065CB
BECMG 2201/2202 15013KT 9999 NSW SCT060 QNH2999INS
TEMPO 2202/2207 17015G20KT 9999 -SHRA BKN030 TX33/2121Z TN23/2213Z
No reported NOTAMs for that airfield.



MET'MAP, your aeronautical weather chart ! - Copyright ORBIFLY December 2007 - Disclaimer

ORBIFLY MET'MAP TEAM :

Programming & Development : Alexandra Zaïnal
Concept & Development : Baudouin d'Aumeries
Co-Development & Prog : Marc-Olivier Méhu
Technical & hardware support : Manuel Goepfert

Contact : metmap@orbifly.com




SOURCES & CREDITS :

   NOAA       Earth
Advisory